Time;durP1;ratioP1;P1;durP2;ratioP2;P2;SDS_P1;SDS_P2;PMS_P1;PMS_P2;Temp;Humidity;BMP_temperature;BMP_pressure;BME280_temperature;BME280_humidity;BME280_pressure;Samples;Min_cycle;Max_cycle;Signal;HPM_P1;HPM_P2
2021/11/20 00:01:29;;;;;;;;;;;7.20;99.50;;;;;;5095009;28;20024;-81
2021/11/20 00:03:55;;;;;;;;;;;7.30;99.20;;;;;;5095065;28;19962;-80
2021/11/20 00:06:25;;;;;;;;;;;7.40;98.60;;;;;;5094968;28;20329;-81
2021/11/20 00:08:51;;;;;;;;;;;7.30;98.50;;;;;;5094735;28;19920;-81
2021/11/20 00:11:18;;;;;;;;;;;7.00;99.00;;;;;;5094796;28;20291;-81
2021/11/20 00:13:44;;;;;;;;;;;7.10;99.70;;;;;;5094871;28;19957;-80
2021/11/20 00:16:10;;;;;;;;;;;7.10;99.90;;;;;;5094791;28;19935;-80
2021/11/20 00:18:37;;;;;;;;;;;6.90;99.90;;;;;;5094924;28;19954;-80
2021/11/20 00:21:05;;;;;;;;;;;7.00;99.90;;;;;;5094814;28;19909;-80
2021/11/20 00:23:32;;;;;;;;;;;7.10;99.90;;;;;;5094856;28;19915;-79
2021/11/20 00:25:59;;;;;;;;;;;7.30;99.90;;;;;;5094575;28;19908;-80
2021/11/20 00:31:17;;;;;;;;;;;7.30;99.50;;;;;;5093383;28;19919;-80
2021/11/20 00:33:43;;;;;;;;;;;7.30;98.90;;;;;;5094549;28;19908;-81
2021/11/20 00:36:09;;;;;;;;;;;7.00;98.70;;;;;;5094439;28;19954;-80
2021/11/20 00:38:36;;;;;;;;;;;6.60;99.90;;;;;;5094325;28;20444;-80
2021/11/20 00:41:20;;;;;;;;;;;6.40;99.90;;;;;;5094442;28;19912;-80
2021/11/20 00:43:46;;;;;;;;;;;6.60;99.90;;;;;;5094304;28;19913;-80
2021/11/20 00:46:13;;;;;;;;;;;6.90;99.80;;;;;;5094652;28;20006;-81
2021/11/20 00:48:42;;;;;;;;;;;7.00;99.30;;;;;;5094240;28;20002;-80
2021/11/20 00:51:09;;;;;;;;;;;6.90;99.10;;;;;;5094148;28;19912;-81
2021/11/20 00:53:35;;;;;;;;;;;6.80;98.90;;;;;;5094166;28;19916;-80
2021/11/20 00:56:01;;;;;;;;;;;6.70;99.20;;;;;;5094123;28;19909;-81
2021/11/20 00:58:26;;;;;;;;;;;6.50;99.20;;;;;;5094266;28;20368;-81
2021/11/20 01:00:54;;;;;;;;;;;6.10;99.90;;;;;;5094226;28;19908;-81
2021/11/20 01:03:20;;;;;;;;;;;5.90;99.90;;;;;;5094053;28;20383;-80
2021/11/20 01:05:46;;;;;;;;;;;5.80;99.90;;;;;;5093995;28;19961;-81
2021/11/20 01:08:13;;;;;;;;;;;6.10;99.90;;;;;;5093735;28;19994;-80
2021/11/20 01:10:41;;;;;;;;;;;6.30;99.90;;;;;;5094322;28;19916;-80
2021/11/20 01:13:07;;;;;;;;;;;6.50;99.90;;;;;;5094061;28;19915;-81
2021/11/20 01:15:37;;;;;;;;;;;6.60;99.90;;;;;;5093848;28;19908;-81
2021/11/20 01:18:04;;;;;;;;;;;6.50;99.90;;;;;;5092556;28;19915;-81
2021/11/20 01:20:29;;;;;;;;;;;6.40;99.90;;;;;;5094189;28;19908;-80
2021/11/20 01:22:55;;;;;;;;;;;6.50;99.90;;;;;;5094152;28;19957;-80
2021/11/20 01:25:21;;;;;;;;;;;6.70;99.90;;;;;;5092451;28;19912;-80
2021/11/20 01:27:47;;;;;;;;;;;6.60;99.90;;;;;;5093826;28;19912;-81
2021/11/20 01:30:14;;;;;;;;;;;6.30;99.90;;;;;;5093661;28;19912;-80
2021/11/20 01:32:39;;;;;;;;;;;6.20;99.90;;;;;;5093663;28;19915;-81
2021/11/20 01:35:07;;;;;;;;;;;6.50;99.90;;;;;;5093680;28;20003;-80
2021/11/20 01:37:34;;;;;;;;;;;6.60;99.90;;;;;;5093689;28;19908;-80
2021/11/20 01:39:59;;;;;;;;;;;6.30;99.90;;;;;;5093533;28;19933;-80
2021/11/20 01:42:29;;;;;;;;;;;6.40;99.90;;;;;;5093993;28;19908;-80
2021/11/20 01:45:00;;;;;;;;;;;6.40;99.90;;;;;;5093736;28;19908;-80
2021/11/20 01:47:31;;;;;;;;;;;6.30;99.90;;;;;;5093877;28;19909;-80
2021/11/20 01:50:00;;;;;;;;;;;6.30;99.90;;;;;;5093529;28;19912;-80
2021/11/20 01:52:35;;;;;;;;;;;6.50;99.90;;;;;;5093513;28;19908;-81
2021/11/20 01:55:16;;;;;;;;;;;6.60;99.30;;;;;;5093632;28;19943;-81
2021/11/20 01:57:45;;;;;;;;;;;6.50;99.20;;;;;;5093459;28;19912;-80
2021/11/20 02:00:11;;;;;;;;;;;6.50;98.90;;;;;;5093396;28;20383;-80
2021/11/20 02:02:42;;;;;;;;;;;6.60;98.40;;;;;;5093461;28;19908;-81
2021/11/20 02:05:08;;;;;;;;;;;6.50;98.40;;;;;;5091833;28;19914;-80
2021/11/20 02:07:36;;;;;;;;;;;6.40;98.50;;;;;;5093502;28;19995;-81
2021/11/20 02:10:01;;;;;;;;;;;6.00;99.90;;;;;;5096229;28;20012;-81
2021/11/20 02:12:30;;;;;;;;;;;6.00;99.90;;;;;;5097438;28;19944;-81
2021/11/20 02:14:56;;;;;;;;;;;6.10;99.90;;;;;;5095862;28;20004;-80
2021/11/20 02:17:33;;;;;;;;;;;6.20;99.30;;;;;;5097389;28;19955;-80
2021/11/20 02:20:01;;;;;;;;;;;6.00;99.60;;;;;;5097165;28;19962;-81
2021/11/20 02:22:33;;;;;;;;;;;5.80;99.90;;;;;;5097383;28;19915;-81
2021/11/20 02:24:59;;;;;;;;;;;5.80;99.90;;;;;;5096894;28;20007;-80
2021/11/20 02:27:24;;;;;;;;;;;6.00;99.90;;;;;;5096932;28;20336;-81
2021/11/20 02:29:50;;;;;;;;;;;6.20;99.60;;;;;;5096790;28;19961;-80
2021/11/20 02:32:18;;;;;;;;;;;6.10;99.60;;;;;;5097069;28;19912;-81
2021/11/20 02:34:44;;;;;;;;;;;6.20;99.20;;;;;;5096923;28;19915;-81
2021/11/20 02:37:11;;;;;;;;;;;6.10;99.00;;;;;;5096691;28;19908;-81
2021/11/20 02:39:37;;;;;;;;;;;5.80;99.20;;;;;;5096594;28;19915;-81
2021/11/20 02:42:04;;;;;;;;;;;5.60;99.90;;;;;;5095377;28;19908;-80
2021/11/20 02:44:30;;;;;;;;;;;5.70;99.90;;;;;;5097010;28;19973;-80
2021/11/20 02:46:59;;;;;;;;;;;5.80;99.60;;;;;;5096593;28;20415;-80
2021/11/20 02:49:26;;;;;;;;;;;5.70;99.90;;;;;;5096450;28;19915;-80
2021/11/20 02:51:54;;;;;;;;;;;5.50;99.90;;;;;;5096411;28;19916;-80
2021/11/20 02:54:20;;;;;;;;;;;5.60;99.90;;;;;;5096822;28;19909;-80
2021/11/20 02:56:51;;;;;;;;;;;5.80;99.80;;;;;;5095094;28;20000;-81
2021/11/20 02:59:17;;;;;;;;;;;5.90;99.20;;;;;;5096504;28;20337;-80
2021/11/20 03:01:44;;;;;;;;;;;5.60;99.90;;;;;;5096232;28;19915;-80
2021/11/20 03:04:11;;;;;;;;;;;5.40;99.90;;;;;;5096226;28;19994;-80
2021/11/20 03:06:37;;;;;;;;;;;5.60;99.90;;;;;;5096167;28;19908;-80
2021/11/20 03:09:04;;;;;;;;;;;5.90;99.90;;;;;;5094630;28;20007;-81
2021/11/20 03:11:29;;;;;;;;;;;6.20;99.90;;;;;;5096079;28;19912;-80
2021/11/20 03:13:56;;;;;;;;;;;6.40;99.90;;;;;;5094769;28;20387;-80
2021/11/20 03:16:23;;;;;;;;;;;6.50;99.90;;;;;;5096000;28;19908;-81
2021/11/20 03:18:48;;;;;;;;;;;6.60;99.90;;;;;;5095663;28;20288;-80
2021/11/20 03:21:16;;;;;;;;;;;6.60;99.90;;;;;;5095857;28;19909;-80
2021/11/20 03:23:44;;;;;;;;;;;6.60;99.90;;;;;;5095806;28;19919;-80
2021/11/20 03:26:09;;;;;;;;;;;6.50;99.90;;;;;;5095795;28;20391;-81
2021/11/20 03:28:35;;;;;;;;;;;6.40;99.90;;;;;;5095768;28;19908;-81
2021/11/20 03:31:00;;;;;;;;;;;6.60;99.90;;;;;;5095793;28;20435;-81
2021/11/20 03:33:26;;;;;;;;;;;6.60;99.90;;;;;;5095756;28;20257;-81
2021/11/20 03:35:52;;;;;;;;;;;6.80;99.90;;;;;;5095647;28;20291;-80
2021/11/20 03:38:17;;;;;;;;;;;7.00;99.90;;;;;;5095573;28;19985;-80
2021/11/20 03:40:43;;;;;;;;;;;7.10;99.90;;;;;;5095489;28;19908;-80
2021/11/20 03:43:10;;;;;;;;;;;7.20;99.90;;;;;;5094190;28;19908;-81
2021/11/20 03:45:36;;;;;;;;;;;7.20;99.90;;;;;;5095424;28;19915;-80
2021/11/20 03:48:01;;;;;;;;;;;7.20;99.90;;;;;;5095408;28;19912;-80
2021/11/20 03:50:27;;;;;;;;;;;7.40;99.90;;;;;;5095205;28;19966;-80
2021/11/20 03:52:53;;;;;;;;;;;7.30;99.90;;;;;;5095446;28;19947;-81
2021/11/20 03:55:21;;;;;;;;;;;7.30;99.90;;;;;;5095212;28;19915;-80
2021/11/20 03:57:47;;;;;;;;;;;7.30;99.90;;;;;;5095197;28;19991;-80
2021/11/20 04:00:14;;;;;;;;;;;7.40;99.90;;;;;;5095115;28;19955;-80
2021/11/20 04:02:41;;;;;;;;;;;7.40;99.90;;;;;;5095541;28;19991;-81
2021/11/20 04:05:07;;;;;;;;;;;7.40;99.90;;;;;;5095324;28;19957;-80
2021/11/20 04:07:32;;;;;;;;;;;7.40;99.90;;;;;;5094987;28;20380;-80
2021/11/20 04:09:58;;;;;;;;;;;7.40;99.90;;;;;;5094457;28;19920;-80
2021/11/20 04:12:23;;;;;;;;;;;7.40;99.90;;;;;;5094920;28;19952;-80
2021/11/20 04:14:49;;;;;;;;;;;7.40;99.90;;;;;;5095172;28;20284;-80
2021/11/20 04:17:14;;;;;;;;;;;7.30;99.90;;;;;;5094800;28;19908;-80
2021/11/20 04:19:41;;;;;;;;;;;7.30;99.90;;;;;;5094761;28;20320;-80
2021/11/20 04:22:06;;;;;;;;;;;7.30;99.90;;;;;;5094711;28;19914;-80
2021/11/20 04:24:32;;;;;;;;;;;7.30;99.90;;;;;;5094679;28;20002;-80
2021/11/20 04:26:58;;;;;;;;;;;7.30;99.90;;;;;;5094609;28;19908;-80
2021/11/20 04:29:23;;;;;;;;;;;7.30;99.90;;;;;;5093295;28;19908;-81
2021/11/20 04:31:49;;;;;;;;;;;7.30;99.90;;;;;;5092403;28;19977;-80
2021/11/20 04:34:15;;;;;;;;;;;7.30;99.90;;;;;;5094536;28;20284;-80
2021/11/20 04:36:40;;;;;;;;;;;7.30;99.90;;;;;;5094611;28;19962;-81
2021/11/20 04:39:06;;;;;;;;;;;7.40;99.90;;;;;;5094484;28;19908;-80
2021/11/20 04:41:32;;;;;;;;;;;7.30;99.90;;;;;;5094447;28;19908;-81
2021/11/20 04:43:57;;;;;;;;;;;7.30;99.90;;;;;;5093018;28;19951;-80
2021/11/20 04:46:24;;;;;;;;;;;7.30;99.90;;;;;;5094319;28;20265;-80
2021/11/20 04:48:49;;;;;;;;;;;7.30;99.90;;;;;;5094258;28;19916;-80
2021/11/20 04:51:15;;;;;;;;;;;7.30;99.90;;;;;;5094102;28;19939;-80
2021/11/20 04:53:42;;;;;;;;;;;7.40;99.90;;;;;;5094178;28;20398;-81
2021/11/20 04:56:12;;;;;;;;;;;7.40;99.90;;;;;;5094123;28;20372;-80
2021/11/20 04:58:40;;;;;;;;;;;7.30;99.90;;;;;;5094258;28;20266;-80
2021/11/20 05:01:06;;;;;;;;;;;7.40;99.90;;;;;;5094331;28;19933;-81
2021/11/20 05:03:32;;;;;;;;;;;7.40;99.90;;;;;;5094041;28;19927;-81
2021/11/20 05:05:58;;;;;;;;;;;7.40;99.90;;;;;;5093958;28;20046;-81
2021/11/20 05:08:24;;;;;;;;;;;7.50;99.90;;;;;;5092471;28;19940;-80
2021/11/20 05:10:51;;;;;;;;;;;7.50;99.90;;;;;;5094337;28;19912;-80
2021/11/20 05:13:17;;;;;;;;;;;7.40;99.90;;;;;;5094209;28;19920;-81
2021/11/20 05:15:43;;;;;;;;;;;7.30;99.90;;;;;;5093890;28;20257;-80
2021/11/20 05:18:09;;;;;;;;;;;7.30;99.90;;;;;;5093900;28;19908;-80
2021/11/20 05:20:35;;;;;;;;;;;7.30;99.90;;;;;;5093970;28;19931;-80
2021/11/20 05:23:01;;;;;;;;;;;7.30;99.90;;;;;;5093758;28;19908;-80
2021/11/20 05:25:27;;;;;;;;;;;7.30;99.90;;;;;;5092478;28;19908;-80
2021/11/20 05:27:53;;;;;;;;;;;7.30;99.90;;;;;;5093745;28;19943;-80
2021/11/20 05:30:22;;;;;;;;;;;7.40;99.90;;;;;;5092345;28;19913;-80
2021/11/20 05:32:49;;;;;;;;;;;7.30;99.90;;;;;;5094110;28;19916;-80
2021/11/20 05:35:17;;;;;;;;;;;7.30;99.90;;;;;;5092368;28;19908;-81
2021/11/20 05:37:43;;;;;;;;;;;7.20;99.90;;;;;;5093764;28;20386;-80
2021/11/20 05:40:13;;;;;;;;;;;7.20;99.90;;;;;;5093560;28;19953;-80
2021/11/20 05:42:39;;;;;;;;;;;7.10;99.90;;;;;;5094833;28;20288;-81
2021/11/20 05:45:05;;;;;;;;;;;7.10;99.90;;;;;;5097897;28;19930;-80
2021/11/20 05:47:31;;;;;;;;;;;7.10;99.90;;;;;;5097803;28;19915;-80
2021/11/20 05:49:57;;;;;;;;;;;7.20;99.90;;;;;;5097548;28;19935;-80
2021/11/20 05:52:22;;;;;;;;;;;7.20;99.90;;;;;;5097649;28;19954;-80
2021/11/20 05:54:48;;;;;;;;;;;7.30;99.90;;;;;;5097982;28;19935;-80
2021/11/20 05:57:14;;;;;;;;;;;7.20;99.90;;;;;;5096300;28;20375;-80
2021/11/20 05:59:39;;;;;;;;;;;7.10;99.90;;;;;;5097613;28;19912;-80
2021/11/20 06:02:05;;;;;;;;;;;7.10;99.90;;;;;;5097462;28;19915;-81
2021/11/20 06:04:31;;;;;;;;;;;7.10;99.90;;;;;;5097369;28;19908;-80
2021/11/20 06:06:58;;;;;;;;;;;7.10;99.90;;;;;;5097393;28;19957;-81
2021/11/20 06:09:23;;;;;;;;;;;7.00;99.90;;;;;;5097202;28;19920;-80
2021/11/20 06:11:49;;;;;;;;;;;7.10;99.90;;;;;;5097165;28;20272;-80
2021/11/20 06:14:15;;;;;;;;;;;7.10;99.90;;;;;;5097407;28;19915;-80
2021/11/20 06:16:40;;;;;;;;;;;7.20;99.90;;;;;;5097281;28;19916;-80
2021/11/20 06:19:06;;;;;;;;;;;7.20;99.90;;;;;;5097216;28;19908;-80
2021/11/20 06:21:32;;;;;;;;;;;7.20;99.90;;;;;;5097113;28;19954;-81
2021/11/20 06:23:58;;;;;;;;;;;7.20;99.90;;;;;;5097040;28;19915;-80
2021/11/20 06:26:24;;;;;;;;;;;7.20;99.90;;;;;;5096970;28;20372;-81
2021/11/20 06:28:49;;;;;;;;;;;7.10;99.90;;;;;;5096948;28;20007;-80
2021/11/20 06:31:15;;;;;;;;;;;7.00;99.90;;;;;;5096757;28;20289;-80
2021/11/20 06:33:41;;;;;;;;;;;6.90;99.90;;;;;;5096809;28;20433;-80
2021/11/20 06:36:07;;;;;;;;;;;6.90;99.90;;;;;;5096832;28;19961;-81
2021/11/20 06:38:36;;;;;;;;;;;6.90;99.90;;;;;;5097006;28;19916;-80
2021/11/20 06:41:03;;;;;;;;;;;7.00;99.90;;;;;;5096917;28;19912;-80
2021/11/20 06:43:29;;;;;;;;;;;6.90;99.90;;;;;;5095363;28;20414;-80
2021/11/20 06:45:58;;;;;;;;;;;7.00;99.90;;;;;;5096627;28;19908;-79
2021/11/20 06:48:24;;;;;;;;;;;7.00;99.90;;;;;;5095282;28;19953;-80
2021/11/20 06:50:51;;;;;;;;;;;7.00;99.90;;;;;;5096457;28;19916;-80
2021/11/20 06:53:17;;;;;;;;;;;7.00;99.90;;;;;;5096461;28;19912;-80
2021/11/20 06:55:44;;;;;;;;;;;6.90;99.90;;;;;;5094080;28;20006;-80
2021/11/20 07:00:38;;;;;;;;;;;7.00;99.90;;;;;;5096309;28;19908;-80
2021/11/20 07:03:06;;;;;;;;;;;7.00;99.90;;;;;;5094997;28;20016;-81
2021/11/20 07:05:34;;;;;;;;;;;7.00;99.90;;;;;;5096303;28;20002;-80
2021/11/20 07:08:00;;;;;;;;;;;7.00;99.90;;;;;;5096191;28;19908;-80
2021/11/20 07:10:26;;;;;;;;;;;7.00;99.90;;;;;;5094645;28;20265;-80
2021/11/20 07:12:53;;;;;;;;;;;7.00;99.90;;;;;;5096706;28;19962;-81
2021/11/20 07:15:20;;;;;;;;;;;6.90;99.90;;;;;;5096011;28;20399;-80
2021/11/20 07:17:46;;;;;;;;;;;6.90;99.90;;;;;;5096049;28;19931;-80
2021/11/20 07:20:12;;;;;;;;;;;6.90;99.90;;;;;;5094644;28;20381;-80
2021/11/20 07:22:37;;;;;;;;;;;7.00;99.90;;;;;;5095896;28;20300;-80
2021/11/20 07:25:03;;;;;;;;;;;6.90;99.90;;;;;;5096033;28;19938;-81
2021/11/20 07:27:29;;;;;;;;;;;7.00;99.90;;;;;;5096099;28;20292;-80
2021/11/20 07:29:54;;;;;;;;;;;7.10;99.90;;;;;;5095766;28;19908;-80
2021/11/20 07:32:20;;;;;;;;;;;7.10;99.90;;;;;;5095846;28;19908;-80
2021/11/20 07:34:45;;;;;;;;;;;7.10;99.90;;;;;;5095637;28;20276;-80
2021/11/20 07:37:11;;;;;;;;;;;7.00;99.90;;;;;;5095987;28;19955;-80
2021/11/20 07:39:38;;;;;;;;;;;7.00;99.90;;;;;;5095769;28;20373;-80
2021/11/20 07:42:04;;;;;;;;;;;7.00;99.90;;;;;;5095495;28;20406;-80
2021/11/20 07:44:30;;;;;;;;;;;7.10;99.90;;;;;;5095455;28;19908;-80
2021/11/20 07:46:55;;;;;;;;;;;7.10;99.90;;;;;;5095920;28;19915;-80
2021/11/20 07:49:21;;;;;;;;;;;7.20;99.90;;;;;;5095778;28;20026;-80
2021/11/20 07:51:46;;;;;;;;;;;7.20;99.90;;;;;;5095430;28;20326;-81
2021/11/20 07:54:12;;;;;;;;;;;7.20;99.90;;;;;;5095420;28;19915;-80
2021/11/20 07:56:42;;;;;;;;;;;7.30;99.90;;;;;;5095284;28;19912;-80
2021/11/20 07:59:12;;;;;;;;;;;7.30;99.90;;;;;;5093923;28;19954;-80
2021/11/20 08:01:37;;;;;;;;;;;7.40;99.90;;;;;;5095146;28;19922;-80
2021/11/20 08:04:03;;;;;;;;;;;7.40;99.90;;;;;;5095101;28;19908;-80
2021/11/20 08:06:29;;;;;;;;;;;7.50;99.90;;;;;;5095199;28;20295;-79
2021/11/20 08:08:55;;;;;;;;;;;7.40;99.90;;;;;;5094830;28;19931;-80
2021/11/20 08:11:20;;;;;;;;;;;7.30;99.90;;;;;;5093530;28;19962;-80
2021/11/20 08:13:46;;;;;;;;;;;7.30;99.90;;;;;;5095072;28;20014;-80
2021/11/20 08:16:12;;;;;;;;;;;7.40;99.90;;;;;;5093635;28;19943;-80
2021/11/20 08:18:38;;;;;;;;;;;7.40;99.90;;;;;;5094777;28;19931;-81
2021/11/20 08:21:03;;;;;;;;;;;7.50;99.90;;;;;;5095244;28;19995;-80
2021/11/20 08:23:30;;;;;;;;;;;7.50;99.90;;;;;;5094914;28;19909;-80
2021/11/20 08:25:55;;;;;;;;;;;7.50;99.90;;;;;;5094415;28;19908;-80
2021/11/20 08:28:21;;;;;;;;;;;7.40;99.90;;;;;;5094592;28;19912;-80
2021/11/20 08:30:47;;;;;;;;;;;7.50;99.90;;;;;;5094501;28;19961;-80
2021/11/20 08:33:13;;;;;;;;;;;7.40;99.90;;;;;;5094800;28;19908;-80
2021/11/20 08:35:39;;;;;;;;;;;7.40;99.90;;;;;;5094500;28;19914;-80
2021/11/20 08:38:08;;;;;;;;;;;7.50;99.90;;;;;;5093169;28;19998;-80
2021/11/20 08:40:36;;;;;;;;;;;7.60;99.90;;;;;;5094349;28;19955;-77
2021/11/20 08:43:02;;;;;;;;;;;7.70;99.90;;;;;;5094387;28;19912;-78
2021/11/20 08:45:30;;;;;;;;;;;7.60;99.90;;;;;;5094451;28;19916;-78
2021/11/20 08:47:56;;;;;;;;;;;7.70;99.90;;;;;;5094336;28;19908;-78
2021/11/20 08:50:30;;;;;;;;;;;7.70;99.90;;;;;;5094212;28;19959;-78
2021/11/20 08:52:56;;;;;;;;;;;7.80;99.90;;;;;;5094514;28;19908;-78
2021/11/20 08:55:22;;;;;;;;;;;7.90;99.90;;;;;;5092814;28;19919;-78
2021/11/20 08:57:48;;;;;;;;;;;7.80;99.90;;;;;;5093084;28;19919;-78
2021/11/20 09:00:16;;;;;;;;;;;7.90;99.90;;;;;;5093063;28;20399;-78
2021/11/20 09:02:44;;;;;;;;;;;8.00;99.90;;;;;;5094014;28;19912;-78
2021/11/20 09:05:30;;;;;;;;;;;8.00;99.90;;;;;;5093977;28;19915;-78
2021/11/20 09:07:59;;;;;;;;;;;8.00;99.90;;;;;;5093543;28;19908;-78
2021/11/20 09:10:27;;;;;;;;;;;8.00;99.90;;;;;;5093390;28;20045;-78
2021/11/20 09:13:08;;;;;;;;;;;8.20;99.90;;;;;;5092611;28;19998;-78
2021/11/20 09:15:45;;;;;;;;;;;8.20;99.90;;;;;;5093834;28;20368;-78
2021/11/20 09:18:11;;;;;;;;;;;8.10;99.90;;;;;;5093718;28;20371;-80
2021/11/20 09:20:37;;;;;;;;;;;8.10;99.90;;;;;;5093757;28;19908;-79
2021/11/20 09:23:03;;;;;;;;;;;8.10;99.90;;;;;;5093890;28;20271;-78
2021/11/20 09:25:29;;;;;;;;;;;8.10;99.90;;;;;;5094020;28;20015;-78
2021/11/20 09:27:55;;;;;;;;;;;8.10;99.90;;;;;;5092434;28;19908;-78
2021/11/20 09:30:27;;;;;;;;;;;8.10;99.90;;;;;;5091526;28;19973;-79
2021/11/20 09:32:54;;;;;;;;;;;8.20;99.90;;;;;;5093541;28;19916;-78
2021/11/20 09:35:21;;;;;;;;;;;8.20;99.90;;;;;;5094143;28;19908;-78
2021/11/20 09:37:47;;;;;;;;;;;8.20;99.90;;;;;;5093322;28;19908;-78
2021/11/20 09:40:14;;;;;;;;;;;8.20;99.90;;;;;;5093584;28;20041;-78
2021/11/20 09:42:42;;;;;;;;;;;8.30;99.90;;;;;;5075095;28;19912;-78
2021/11/20 09:45:12;;;;;;;;;;;8.30;99.90;;;;;;5093964;28;19970;-78
2021/11/20 09:47:37;;;;;;;;;;;8.30;99.90;;;;;;5093866;28;19908;-78
2021/11/20 09:50:06;;;;;;;;;;;8.30;99.90;;;;;;5093355;28;19912;-78
2021/11/20 09:52:32;;;;;;;;;;;8.30;99.90;;;;;;5093093;28;19932;-78
2021/11/20 09:54:57;;;;;;;;;;;8.20;99.90;;;;;;5092196;28;20322;-78
2021/11/20 09:57:30;;;;;;;;;;;8.10;99.90;;;;;;5093543;28;20311;-77
2021/11/20 09:59:55;;;;;;;;;;;8.10;99.90;;;;;;5093193;28;19908;-78
2021/11/20 10:02:25;;;;;;;;;;;8.20;99.90;;;;;;5093154;28;19961;-77
2021/11/20 10:04:51;;;;;;;;;;;8.30;99.90;;;;;;5093777;28;19943;-78
2021/11/20 10:07:36;;;;;;;;;;;8.30;99.90;;;;;;5093648;28;20265;-78
2021/11/20 10:10:05;;;;;;;;;;;8.40;99.90;;;;;;5092660;28;20014;-78
2021/11/20 10:12:40;;;;;;;;;;;8.40;99.90;;;;;;5093573;28;20373;-78
2021/11/20 10:15:06;;;;;;;;;;;8.40;99.90;;;;;;5093736;28;19909;-78
2021/11/20 10:17:31;;;;;;;;;;;8.50;99.90;;;;;;5093373;28;19919;-78
2021/11/20 10:20:15;;;;;;;;;;;8.40;99.90;;;;;;5093014;28;19912;-78
2021/11/20 10:22:56;;;;;;;;;;;8.50;99.90;;;;;;5093246;28;20001;-78
2021/11/20 10:25:21;;;;;;;;;;;8.60;99.90;;;;;;5091929;28;19918;-79
2021/11/20 10:27:56;;;;;;;;;;;8.70;99.90;;;;;;5093575;28;19908;-78
2021/11/20 10:30:32;;;;;;;;;;;8.70;99.90;;;;;;5093854;28;20343;-78
2021/11/20 10:33:16;;;;;;;;;;;8.70;99.90;;;;;;5097041;28;19915;-78
2021/11/20 10:36:00;;;;;;;;;;;8.80;99.90;;;;;;5096438;28;20003;-78
2021/11/20 10:38:28;;;;;;;;;;;8.80;99.90;;;;;;5095725;28;19916;-78
2021/11/20 10:41:06;;;;;;;;;;;8.70;99.90;;;;;;5095456;28;19908;-78
2021/11/20 10:43:40;;;;;;;;;;;8.70;99.90;;;;;;5096297;28;19999;-78
2021/11/20 10:46:24;;;;;;;;;;;8.70;99.90;;;;;;5096643;28;19908;-78
2021/11/20 10:49:08;;;;;;;;;;;8.60;99.90;;;;;;5096601;28;19958;-78
2021/11/20 10:51:33;;;;;;;;;;;8.70;99.90;;;;;;5096906;28;19912;-78
2021/11/20 10:54:29;;;;;;;;;;;8.70;99.90;;;;;;5096664;28;20376;-78
2021/11/20 10:57:13;;;;;;;;;;;8.70;99.90;;;;;;5096847;28;19916;-78
2021/11/20 10:59:52;;;;;;;;;;;8.60;99.90;;;;;;5096387;28;19955;-78
2021/11/20 11:02:32;;;;;;;;;;;8.60;99.90;;;;;;5096442;28;20002;-78
2021/11/20 11:05:10;;;;;;;;;;;8.60;99.90;;;;;;5095158;28;19908;-79
2021/11/20 11:07:54;;;;;;;;;;;8.70;99.90;;;;;;5096476;28;19915;-78
2021/11/20 11:10:26;;;;;;;;;;;8.70;99.90;;;;;;5095550;28;20046;-78
2021/11/20 11:13:15;;;;;;;;;;;8.70;99.90;;;;;;5096262;28;19912;-78
2021/11/20 11:15:56;;;;;;;;;;;8.80;99.90;;;;;;5089015;28;19908;-78
2021/11/20 11:18:41;;;;;;;;;;;9.00;99.90;;;;;;5096007;28;20313;-78
2021/11/20 11:21:25;;;;;;;;;;;8.90;99.90;;;;;;5096069;28;19915;-78
2021/11/20 11:24:09;;;;;;;;;;;9.00;99.90;;;;;;5096336;28;19998;-78
2021/11/20 11:26:46;;;;;;;;;;;9.10;99.90;;;;;;5096030;28;19955;-78
2021/11/20 11:29:30;;;;;;;;;;;9.10;99.90;;;;;;5095680;28;20007;-78
2021/11/20 11:31:56;;;;;;;;;;;9.10;99.90;;;;;;5095703;28;19919;-78
2021/11/20 11:34:24;;;;;;;;;;;9.20;99.90;;;;;;5096116;28;19916;-80
2021/11/20 11:36:53;;;;;;;;;;;9.30;99.90;;;;;;5095620;28;19915;-78
2021/11/20 11:39:19;;;;;;;;;;;9.40;99.90;;;;;;5095641;28;19908;-78
2021/11/20 11:41:47;;;;;;;;;;;9.40;99.90;;;;;;5095334;28;19908;-78
2021/11/20 11:44:31;;;;;;;;;;;9.50;99.90;;;;;;5093251;28;19908;-78
2021/11/20 11:46:59;;;;;;;;;;;9.60;99.90;;;;;;5094199;28;19915;-78
2021/11/20 11:49:28;;;;;;;;;;;9.70;99.90;;;;;;5093743;28;19908;-78
2021/11/20 11:52:17;;;;;;;;;;;9.80;99.90;;;;;;5095319;28;19916;-78
2021/11/20 11:54:45;;;;;;;;;;;9.70;99.90;;;;;;5095490;28;19931;-78
2021/11/20 11:57:13;;;;;;;;;;;9.60;99.90;;;;;;5094418;28;19978;-78
2021/11/20 11:59:39;;;;;;;;;;;10.00;99.90;;;;;;5094650;28;19922;-78
2021/11/20 12:02:22;;;;;;;;;;;10.40;99.90;;;;;;5094949;28;19909;-78
2021/11/20 12:04:49;;;;;;;;;;;10.30;99.90;;;;;;5095051;28;19953;-78
2021/11/20 12:07:24;;;;;;;;;;;10.10;99.90;;;;;;5094943;28;19951;-78
2021/11/20 12:09:51;;;;;;;;;;;10.40;99.90;;;;;;5094751;28;19927;-78
2021/11/20 12:12:36;;;;;;;;;;;10.50;99.90;;;;;;5094895;28;19912;-78
2021/11/20 12:15:19;;;;;;;;;;;10.40;99.90;;;;;;5094825;28;19912;-78
2021/11/20 12:18:03;;;;;;;;;;;10.50;99.90;;;;;;5093309;28;19912;-78
2021/11/20 12:20:52;;;;;;;;;;;10.40;99.90;;;;;;5094767;28;20258;-78
2021/11/20 12:23:26;;;;;;;;;;;10.20;99.90;;;;;;5093462;28;19912;-78
2021/11/20 12:26:07;;;;;;;;;;;10.10;99.90;;;;;;5094885;28;19912;-78
2021/11/20 12:28:35;;;;;;;;;;;10.00;99.90;;;;;;5094671;28;19962;-78
2021/11/20 12:31:10;;;;;;;;;;;10.00;99.90;;;;;;5094724;28;19912;-78
2021/11/20 12:33:54;;;;;;;;;;;10.00;99.90;;;;;;5093289;28;19908;-78
2021/11/20 12:36:41;;;;;;;;;;;10.00;99.90;;;;;;5094522;28;19914;-80
2021/11/20 12:39:15;;;;;;;;;;;9.90;99.90;;;;;;5094627;28;20345;-80
2021/11/20 12:41:56;;;;;;;;;;;9.60;99.90;;;;;;5094746;28;19930;-80
2021/11/20 12:44:31;;;;;;;;;;;9.70;99.90;;;;;;5094355;28;19912;-78
2021/11/20 12:47:11;;;;;;;;;;;9.70;99.90;;;;;;5094304;28;19912;-78
2021/11/20 12:49:55;;;;;;;;;;;9.60;99.90;;;;;;5094375;28;19908;-78
2021/11/20 12:52:26;;;;;;;;;;;9.80;99.90;;;;;;5093515;28;20392;-78
2021/11/20 12:54:55;;;;;;;;;;;10.10;99.90;;;;;;5094329;28;19919;-78
2021/11/20 12:57:26;;;;;;;;;;;10.30;99.90;;;;;;5094170;28;20341;-78
2021/11/20 13:00:21;;;;;;;;;;;10.40;99.90;;;;;;5092826;28;19919;-78
2021/11/20 13:02:51;;;;;;;;;;;10.30;99.90;;;;;;5089081;28;19908;-78
2021/11/20 13:05:17;;;;;;;;;;;10.20;99.90;;;;;;5094111;28;19972;-78
2021/11/20 13:07:51;;;;;;;;;;;10.20;99.90;;;;;;5094045;28;20364;-78
2021/11/20 13:10:29;;;;;;;;;;;10.20;99.90;;;;;;5093443;28;19977;-78
2021/11/20 13:13:04;;;;;;;;;;;10.20;99.90;;;;;;5092017;28;20187;-78
2021/11/20 13:15:33;;;;;;;;;;;10.20;99.90;;;;;;5094505;28;19908;-78
2021/11/20 13:17:58;;;;;;;;;;;10.30;99.90;;;;;;5092605;28;19936;-78
2021/11/20 13:20:41;;;;;;;;;;;10.30;99.90;;;;;;5093853;28;19984;-78
2021/11/20 13:23:12;;;;;;;;;;;10.30;99.90;;;;;;5093841;28;19973;-78
2021/11/20 13:25:44;;;;;;;;;;;10.40;99.90;;;;;;5092520;28;19915;-78
2021/11/20 13:28:09;;;;;;;;;;;10.30;99.90;;;;;;5093935;28;19951;-78
2021/11/20 13:30:36;;;;;;;;;;;10.10;99.90;;;;;;5093855;28;19959;-78
2021/11/20 13:33:03;;;;;;;;;;;10.00;99.90;;;;;;5093738;28;19927;-78
2021/11/20 13:35:33;;;;;;;;;;;10.10;99.90;;;;;;5093923;28;19953;-78
2021/11/20 13:38:06;;;;;;;;;;;10.10;99.90;;;;;;5093663;28;19957;-78
2021/11/20 13:40:37;;;;;;;;;;;10.30;99.90;;;;;;5094110;28;19912;-78
2021/11/20 13:43:09;;;;;;;;;;;10.20;99.90;;;;;;5093624;28;19912;-78
2021/11/20 13:45:34;;;;;;;;;;;10.10;99.90;;;;;;5093809;28;19991;-78
2021/11/20 13:48:00;;;;;;;;;;;10.20;99.90;;;;;;5093727;28;19948;-78
2021/11/20 13:50:35;;;;;;;;;;;10.20;99.90;;;;;;5092231;28;20368;-78
2021/11/20 13:53:00;;;;;;;;;;;10.40;99.90;;;;;;5093915;28;19908;-78
2021/11/20 13:55:26;;;;;;;;;;;10.60;99.90;;;;;;5093558;28;19915;-78
2021/11/20 13:57:51;;;;;;;;;;;10.60;99.90;;;;;;5093510;28;20284;-78
2021/11/20 14:00:21;;;;;;;;;;;10.30;99.90;;;;;;5093490;28;19925;-78
2021/11/20 14:02:51;;;;;;;;;;;10.00;99.90;;;;;;5093480;28;19915;-78
2021/11/20 14:05:17;;;;;;;;;;;10.00;99.90;;;;;;5097392;28;19912;-78
2021/11/20 14:07:44;;;;;;;;;;;10.10;99.90;;;;;;5097357;28;19908;-78
2021/11/20 14:10:14;;;;;;;;;;;10.40;99.90;;;;;;5095544;28;19965;-78
2021/11/20 14:13:02;;;;;;;;;;;10.50;99.90;;;;;;5097637;28;19918;-78
2021/11/20 14:15:28;;;;;;;;;;;10.50;99.90;;;;;;5095690;28;19908;-78
2021/11/20 14:18:01;;;;;;;;;;;9.70;99.90;;;;;;5097281;28;19908;-78
2021/11/20 14:20:27;;;;;;;;;;;9.00;99.90;;;;;;5097494;28;19930;-78
2021/11/20 14:22:52;;;;;;;;;;;8.90;99.90;;;;;;5097410;28;20375;-78
2021/11/20 14:25:22;;;;;;;;;;;9.30;99.90;;;;;;5097185;28;19908;-78
2021/11/20 14:27:58;;;;;;;;;;;9.30;99.90;;;;;;5096946;28;19986;-78
2021/11/20 14:30:24;;;;;;;;;;;9.50;99.90;;;;;;5096857;28;19955;-78
2021/11/20 14:32:50;;;;;;;;;;;9.70;99.90;;;;;;5097119;28;20380;-78
2021/11/20 14:35:15;;;;;;;;;;;9.90;99.90;;;;;;5096982;28;19954;-78
2021/11/20 14:37:41;;;;;;;;;;;10.30;99.90;;;;;;5096774;28;20387;-78
2021/11/20 14:40:08;;;;;;;;;;;10.20;99.90;;;;;;5095421;28;19915;-78
2021/11/20 14:42:35;;;;;;;;;;;10.10;99.90;;;;;;5096881;28;20265;-78
2021/11/20 14:45:08;;;;;;;;;;;10.20;99.90;;;;;;5096683;28;19976;-78